sensor_id;sensor_type;location;lat;lon;timestamp;P1;durP1;ratioP1;P2;durP2;ratioP2
49460;SDS011;35355;49.198;-0.368;2023-10-08T00:01:28;14.98;;;5.10;;
49460;SDS011;35355;49.198;-0.368;2023-10-08T00:03:53;8.18;;;4.60;;
49460;SDS011;35355;49.198;-0.368;2023-10-08T00:06:23;7.57;;;4.15;;
49460;SDS011;35355;49.198;-0.368;2023-10-08T00:08:49;13.57;;;3.83;;
49460;SDS011;35355;49.198;-0.368;2023-10-08T00:11:15;7.65;;;3.95;;
49460;SDS011;35355;49.198;-0.368;2023-10-08T00:13:41;9.15;;;3.88;;
49460;SDS011;35355;49.198;-0.368;2023-10-08T00:16:09;9.13;;;4.90;;
49460;SDS011;35355;49.198;-0.368;2023-10-08T00:18:36;10.02;;;4.55;;
49460;SDS011;35355;49.198;-0.368;2023-10-08T00:21:06;13.23;;;4.65;;
49460;SDS011;35355;49.198;-0.368;2023-10-08T00:23:37;9.35;;;4.38;;
49460;SDS011;35355;49.198;-0.368;2023-10-08T00:26:22;11.57;;;4.35;;
49460;SDS011;35355;49.198;-0.368;2023-10-08T00:31:26;11.00;;;5.97;;
49460;SDS011;35355;49.198;-0.368;2023-10-08T00:33:56;12.35;;;4.85;;
49460;SDS011;35355;49.198;-0.368;2023-10-08T00:36:23;12.50;;;4.18;;
49460;SDS011;35355;49.198;-0.368;2023-10-08T00:38:49;13.05;;;3.78;;
49460;SDS011;35355;49.198;-0.368;2023-10-08T00:41:25;19.00;;;4.60;;
49460;SDS011;35355;49.198;-0.368;2023-10-08T00:43:58;7.93;;;4.15;;
49460;SDS011;35355;49.198;-0.368;2023-10-08T00:46:25;13.82;;;4.30;;
49460;SDS011;35355;49.198;-0.368;2023-10-08T00:48:56;8.70;;;3.78;;
49460;SDS011;35355;49.198;-0.368;2023-10-08T00:51:23;9.73;;;4.10;;
49460;SDS011;35355;49.198;-0.368;2023-10-08T00:54:05;10.43;;;4.55;;
49460;SDS011;35355;49.198;-0.368;2023-10-08T00:56:33;6.88;;;3.85;;
49460;SDS011;35355;49.198;-0.368;2023-10-08T00:59:17;7.70;;;3.80;;
49460;SDS011;35355;49.198;-0.368;2023-10-08T01:01:46;18.00;;;4.25;;
49460;SDS011;35355;49.198;-0.368;2023-10-08T01:04:24;7.05;;;3.75;;
49460;SDS011;35355;49.198;-0.368;2023-10-08T01:06:53;10.00;;;4.20;;
49460;SDS011;35355;49.198;-0.368;2023-10-08T01:09:24;12.13;;;3.83;;
49460;SDS011;35355;49.198;-0.368;2023-10-08T01:14:56;11.23;;;4.15;;
49460;SDS011;35355;49.198;-0.368;2023-10-08T01:17:38;7.95;;;3.65;;
49460;SDS011;35355;49.198;-0.368;2023-10-08T01:20:13;8.55;;;3.65;;
49460;SDS011;35355;49.198;-0.368;2023-10-08T01:22:58;8.40;;;4.07;;
49460;SDS011;35355;49.198;-0.368;2023-10-08T01:25:28;6.50;;;3.40;;
49460;SDS011;35355;49.198;-0.368;2023-10-08T01:27:57;10.65;;;4.50;;
49460;SDS011;35355;49.198;-0.368;2023-10-08T01:30:43;7.80;;;3.70;;
49460;SDS011;35355;49.198;-0.368;2023-10-08T01:33:15;7.00;;;2.97;;
49460;SDS011;35355;49.198;-0.368;2023-10-08T01:35:45;7.40;;;3.28;;
49460;SDS011;35355;49.198;-0.368;2023-10-08T01:38:13;6.90;;;3.08;;
49460;SDS011;35355;49.198;-0.368;2023-10-08T01:40:42;10.77;;;3.05;;
49460;SDS011;35355;49.198;-0.368;2023-10-08T01:43:08;6.68;;;3.08;;
49460;SDS011;35355;49.198;-0.368;2023-10-08T01:45:38;8.10;;;3.38;;
49460;SDS011;35355;49.198;-0.368;2023-10-08T01:48:08;12.13;;;3.80;;
49460;SDS011;35355;49.198;-0.368;2023-10-08T01:50:35;7.60;;;3.50;;
49460;SDS011;35355;49.198;-0.368;2023-10-08T01:53:03;13.23;;;3.55;;
49460;SDS011;35355;49.198;-0.368;2023-10-08T01:55:32;7.70;;;4.15;;
49460;SDS011;35355;49.198;-0.368;2023-10-08T01:58:10;7.20;;;3.20;;
49460;SDS011;35355;49.198;-0.368;2023-10-08T02:00:41;6.95;;;3.45;;
49460;SDS011;35355;49.198;-0.368;2023-10-08T02:03:07;8.68;;;3.45;;
49460;SDS011;35355;49.198;-0.368;2023-10-08T02:05:34;7.68;;;3.25;;
49460;SDS011;35355;49.198;-0.368;2023-10-08T02:08:04;8.02;;;3.63;;
49460;SDS011;35355;49.198;-0.368;2023-10-08T02:10:31;5.97;;;3.38;;
49460;SDS011;35355;49.198;-0.368;2023-10-08T02:12:58;7.70;;;3.17;;
49460;SDS011;35355;49.198;-0.368;2023-10-08T02:15:24;6.53;;;3.10;;
49460;SDS011;35355;49.198;-0.368;2023-10-08T02:17:51;7.32;;;3.75;;
49460;SDS011;35355;49.198;-0.368;2023-10-08T02:20:17;7.60;;;4.07;;
49460;SDS011;35355;49.198;-0.368;2023-10-08T02:22:47;8.23;;;3.10;;
49460;SDS011;35355;49.198;-0.368;2023-10-08T02:25:14;7.30;;;3.33;;
49460;SDS011;35355;49.198;-0.368;2023-10-08T02:27:40;8.23;;;4.78;;
49460;SDS011;35355;49.198;-0.368;2023-10-08T02:30:06;7.78;;;3.13;;
49460;SDS011;35355;49.198;-0.368;2023-10-08T02:32:34;6.78;;;3.38;;
49460;SDS011;35355;49.198;-0.368;2023-10-08T02:35:01;9.65;;;3.92;;
49460;SDS011;35355;49.198;-0.368;2023-10-08T02:37:27;6.60;;;3.60;;
49460;SDS011;35355;49.198;-0.368;2023-10-08T02:39:53;10.23;;;3.97;;
49460;SDS011;35355;49.198;-0.368;2023-10-08T02:42:19;6.82;;;3.95;;
49460;SDS011;35355;49.198;-0.368;2023-10-08T02:44:49;8.93;;;3.85;;
49460;SDS011;35355;49.198;-0.368;2023-10-08T02:47:16;7.38;;;3.63;;
49460;SDS011;35355;49.198;-0.368;2023-10-08T02:49:46;8.20;;;3.92;;
49460;SDS011;35355;49.198;-0.368;2023-10-08T02:52:13;10.73;;;4.40;;
49460;SDS011;35355;49.198;-0.368;2023-10-08T02:54:40;6.82;;;3.88;;
49460;SDS011;35355;49.198;-0.368;2023-10-08T02:57:06;10.65;;;5.07;;
49460;SDS011;35355;49.198;-0.368;2023-10-08T02:59:39;9.90;;;4.40;;
49460;SDS011;35355;49.198;-0.368;2023-10-08T03:02:06;13.63;;;4.70;;
49460;SDS011;35355;49.198;-0.368;2023-10-08T03:04:40;10.18;;;4.60;;
49460;SDS011;35355;49.198;-0.368;2023-10-08T03:07:07;9.35;;;4.60;;
49460;SDS011;35355;49.198;-0.368;2023-10-08T03:09:37;15.45;;;4.97;;
49460;SDS011;35355;49.198;-0.368;2023-10-08T03:12:07;9.85;;;4.85;;
49460;SDS011;35355;49.198;-0.368;2023-10-08T03:14:34;10.70;;;5.32;;
49460;SDS011;35355;49.198;-0.368;2023-10-08T03:17:15;7.55;;;3.97;;
49460;SDS011;35355;49.198;-0.368;2023-10-08T03:19:45;14.27;;;4.60;;
49460;SDS011;35355;49.198;-0.368;2023-10-08T03:22:11;11.70;;;4.28;;
49460;SDS011;35355;49.198;-0.368;2023-10-08T03:24:37;7.15;;;3.78;;
49460;SDS011;35355;49.198;-0.368;2023-10-08T03:27:03;8.05;;;4.10;;
49460;SDS011;35355;49.198;-0.368;2023-10-08T03:29:45;8.05;;;3.63;;
49460;SDS011;35355;49.198;-0.368;2023-10-08T03:32:11;8.80;;;3.63;;
49460;SDS011;35355;49.198;-0.368;2023-10-08T03:34:43;7.15;;;3.67;;
49460;SDS011;35355;49.198;-0.368;2023-10-08T03:37:11;7.95;;;4.13;;
49460;SDS011;35355;49.198;-0.368;2023-10-08T03:39:44;12.55;;;4.68;;
49460;SDS011;35355;49.198;-0.368;2023-10-08T03:42:22;7.53;;;3.53;;
49460;SDS011;35355;49.198;-0.368;2023-10-08T03:44:52;8.93;;;3.70;;
49460;SDS011;35355;49.198;-0.368;2023-10-08T03:47:23;7.90;;;3.72;;
49460;SDS011;35355;49.198;-0.368;2023-10-08T03:49:52;10.65;;;4.05;;
49460;SDS011;35355;49.198;-0.368;2023-10-08T03:52:19;10.05;;;4.20;;
49460;SDS011;35355;49.198;-0.368;2023-10-08T03:54:51;7.57;;;3.78;;
49460;SDS011;35355;49.198;-0.368;2023-10-08T04:00:13;7.95;;;3.85;;
49460;SDS011;35355;49.198;-0.368;2023-10-08T04:02:56;8.70;;;3.78;;
49460;SDS011;35355;49.198;-0.368;2023-10-08T04:05:33;9.10;;;4.38;;
49460;SDS011;35355;49.198;-0.368;2023-10-08T04:08:15;10.93;;;4.15;;
49460;SDS011;35355;49.198;-0.368;2023-10-08T04:10:49;10.32;;;4.28;;
49460;SDS011;35355;49.198;-0.368;2023-10-08T04:13:35;12.55;;;4.75;;
49460;SDS011;35355;49.198;-0.368;2023-10-08T04:16:10;8.43;;;4.07;;
49460;SDS011;35355;49.198;-0.368;2023-10-08T04:18:35;9.35;;;4.82;;
49460;SDS011;35355;49.198;-0.368;2023-10-08T04:21:05;9.70;;;3.97;;
49460;SDS011;35355;49.198;-0.368;2023-10-08T04:23:38;9.52;;;4.30;;
49460;SDS011;35355;49.198;-0.368;2023-10-08T04:26:04;8.70;;;4.95;;
49460;SDS011;35355;49.198;-0.368;2023-10-08T04:28:31;9.07;;;4.57;;
49460;SDS011;35355;49.198;-0.368;2023-10-08T04:31:02;6.38;;;4.13;;
49460;SDS011;35355;49.198;-0.368;2023-10-08T04:33:41;8.95;;;4.07;;
49460;SDS011;35355;49.198;-0.368;2023-10-08T04:36:07;9.23;;;3.63;;
49460;SDS011;35355;49.198;-0.368;2023-10-08T04:38:32;8.18;;;3.90;;
49460;SDS011;35355;49.198;-0.368;2023-10-08T04:41:04;6.93;;;3.70;;
49460;SDS011;35355;49.198;-0.368;2023-10-08T04:43:34;6.30;;;3.67;;
49460;SDS011;35355;49.198;-0.368;2023-10-08T04:46:03;9.50;;;3.60;;
49460;SDS011;35355;49.198;-0.368;2023-10-08T04:48:47;7.32;;;3.05;;
49460;SDS011;35355;49.198;-0.368;2023-10-08T04:51:14;8.43;;;3.85;;
49460;SDS011;35355;49.198;-0.368;2023-10-08T04:53:40;5.32;;;3.20;;
49460;SDS011;35355;49.198;-0.368;2023-10-08T04:56:10;6.93;;;3.50;;
49460;SDS011;35355;49.198;-0.368;2023-10-08T04:58:43;6.60;;;3.20;;
49460;SDS011;35355;49.198;-0.368;2023-10-08T05:01:15;9.10;;;3.70;;
49460;SDS011;35355;49.198;-0.368;2023-10-08T05:03:48;7.70;;;3.88;;
49460;SDS011;35355;49.198;-0.368;2023-10-08T05:06:27;6.82;;;3.13;;
49460;SDS011;35355;49.198;-0.368;2023-10-08T05:09:03;5.72;;;3.13;;
49460;SDS011;35355;49.198;-0.368;2023-10-08T05:11:47;6.75;;;3.70;;
49460;SDS011;35355;49.198;-0.368;2023-10-08T05:14:20;7.55;;;4.03;;
49460;SDS011;35355;49.198;-0.368;2023-10-08T05:16:57;9.10;;;4.45;;
49460;SDS011;35355;49.198;-0.368;2023-10-08T05:19:38;6.50;;;3.67;;
49460;SDS011;35355;49.198;-0.368;2023-10-08T05:22:04;9.48;;;3.47;;
49460;SDS011;35355;49.198;-0.368;2023-10-08T05:24:47;6.78;;;3.63;;
49460;SDS011;35355;49.198;-0.368;2023-10-08T05:27:33;7.40;;;3.22;;
49460;SDS011;35355;49.198;-0.368;2023-10-08T05:30:21;6.90;;;3.17;;
49460;SDS011;35355;49.198;-0.368;2023-10-08T05:32:54;6.47;;;3.45;;
49460;SDS011;35355;49.198;-0.368;2023-10-08T05:35:35;6.40;;;3.15;;
49460;SDS011;35355;49.198;-0.368;2023-10-08T05:40:52;8.68;;;3.55;;
49460;SDS011;35355;49.198;-0.368;2023-10-08T05:43:27;5.82;;;3.15;;
49460;SDS011;35355;49.198;-0.368;2023-10-08T05:46:20;6.50;;;3.10;;
49460;SDS011;35355;49.198;-0.368;2023-10-08T05:48:46;7.68;;;3.05;;
49460;SDS011;35355;49.198;-0.368;2023-10-08T05:51:26;8.05;;;3.35;;
49460;SDS011;35355;49.198;-0.368;2023-10-08T05:54:44;8.30;;;3.58;;
49460;SDS011;35355;49.198;-0.368;2023-10-08T05:57:22;6.80;;;2.88;;
49460;SDS011;35355;49.198;-0.368;2023-10-08T06:00:11;6.03;;;3.25;;
49460;SDS011;35355;49.198;-0.368;2023-10-08T06:02:40;7.63;;;3.33;;
49460;SDS011;35355;49.198;-0.368;2023-10-08T06:05:13;7.22;;;2.80;;
49460;SDS011;35355;49.198;-0.368;2023-10-08T06:07:46;7.03;;;3.28;;
49460;SDS011;35355;49.198;-0.368;2023-10-08T06:15:47;6.45;;;2.90;;
49460;SDS011;35355;49.198;-0.368;2023-10-08T06:18:19;7.43;;;3.90;;
49460;SDS011;35355;49.198;-0.368;2023-10-08T06:20:51;7.50;;;3.13;;
49460;SDS011;35355;49.198;-0.368;2023-10-08T06:23:20;9.50;;;4.38;;
49460;SDS011;35355;49.198;-0.368;2023-10-08T06:25:48;9.00;;;2.83;;
49460;SDS011;35355;49.198;-0.368;2023-10-08T06:28:22;8.23;;;3.05;;
49460;SDS011;35355;49.198;-0.368;2023-10-08T06:30:53;6.93;;;2.92;;
49460;SDS011;35355;49.198;-0.368;2023-10-08T06:33:20;8.23;;;4.13;;
49460;SDS011;35355;49.198;-0.368;2023-10-08T06:35:56;10.50;;;3.40;;
49460;SDS011;35355;49.198;-0.368;2023-10-08T06:38:41;12.70;;;4.15;;
49460;SDS011;35355;49.198;-0.368;2023-10-08T06:41:10;8.02;;;4.00;;
49460;SDS011;35355;49.198;-0.368;2023-10-08T06:43:39;5.63;;;3.28;;
49460;SDS011;35355;49.198;-0.368;2023-10-08T06:46:10;7.78;;;3.40;;
49460;SDS011;35355;49.198;-0.368;2023-10-08T06:48:38;8.45;;;3.33;;
49460;SDS011;35355;49.198;-0.368;2023-10-08T06:51:08;5.65;;;3.03;;
49460;SDS011;35355;49.198;-0.368;2023-10-08T06:53:43;5.18;;;3.22;;
49460;SDS011;35355;49.198;-0.368;2023-10-08T06:56:10;5.80;;;3.08;;
49460;SDS011;35355;49.198;-0.368;2023-10-08T06:58:37;6.78;;;3.05;;
49460;SDS011;35355;49.198;-0.368;2023-10-08T07:01:03;7.32;;;3.60;;
49460;SDS011;35355;49.198;-0.368;2023-10-08T07:03:34;10.85;;;3.50;;
49460;SDS011;35355;49.198;-0.368;2023-10-08T07:06:01;7.60;;;3.67;;
49460;SDS011;35355;49.198;-0.368;2023-10-08T07:08:31;9.73;;;3.03;;
49460;SDS011;35355;49.198;-0.368;2023-10-08T07:11:00;8.90;;;4.13;;
49460;SDS011;35355;49.198;-0.368;2023-10-08T07:15:57;6.10;;;3.55;;
49460;SDS011;35355;49.198;-0.368;2023-10-08T07:18:23;8.52;;;4.38;;
49460;SDS011;35355;49.198;-0.368;2023-10-08T07:20:52;9.13;;;3.47;;
49460;SDS011;35355;49.198;-0.368;2023-10-08T07:23:25;8.20;;;3.75;;
49460;SDS011;35355;49.198;-0.368;2023-10-08T07:25:55;9.45;;;3.83;;
49460;SDS011;35355;49.198;-0.368;2023-10-08T07:28:39;8.95;;;3.50;;
49460;SDS011;35355;49.198;-0.368;2023-10-08T07:31:15;7.57;;;3.67;;
49460;SDS011;35355;49.198;-0.368;2023-10-08T07:33:42;6.82;;;3.65;;
49460;SDS011;35355;49.198;-0.368;2023-10-08T07:36:11;8.95;;;3.75;;
49460;SDS011;35355;49.198;-0.368;2023-10-08T07:41:32;7.13;;;3.33;;
49460;SDS011;35355;49.198;-0.368;2023-10-08T07:43:59;10.02;;;4.05;;
49460;SDS011;35355;49.198;-0.368;2023-10-08T07:46:25;7.47;;;3.63;;
49460;SDS011;35355;49.198;-0.368;2023-10-08T07:48:54;9.73;;;3.35;;
49460;SDS011;35355;49.198;-0.368;2023-10-08T07:51:19;9.93;;;4.18;;
49460;SDS011;35355;49.198;-0.368;2023-10-08T07:53:54;8.43;;;3.85;;
49460;SDS011;35355;49.198;-0.368;2023-10-08T07:56:23;9.23;;;4.32;;
49460;SDS011;35355;49.198;-0.368;2023-10-08T07:58:50;9.82;;;3.83;;
49460;SDS011;35355;49.198;-0.368;2023-10-08T08:01:22;12.48;;;3.85;;
49460;SDS011;35355;49.198;-0.368;2023-10-08T08:03:52;6.43;;;3.67;;
49460;SDS011;35355;49.198;-0.368;2023-10-08T08:06:17;8.52;;;3.22;;
49460;SDS011;35355;49.198;-0.368;2023-10-08T08:08:43;8.93;;;3.50;;
49460;SDS011;35355;49.198;-0.368;2023-10-08T08:11:09;7.97;;;3.95;;
49460;SDS011;35355;49.198;-0.368;2023-10-08T08:13:41;7.95;;;3.05;;
49460;SDS011;35355;49.198;-0.368;2023-10-08T08:16:07;9.73;;;3.70;;
49460;SDS011;35355;49.198;-0.368;2023-10-08T08:18:46;8.27;;;3.15;;
49460;SDS011;35355;49.198;-0.368;2023-10-08T08:21:14;8.18;;;3.67;;
49460;SDS011;35355;49.198;-0.368;2023-10-08T08:23:45;9.63;;;3.00;;
49460;SDS011;35355;49.198;-0.368;2023-10-08T08:26:21;7.18;;;3.05;;
49460;SDS011;35355;49.198;-0.368;2023-10-08T08:28:57;5.97;;;3.45;;
49460;SDS011;35355;49.198;-0.368;2023-10-08T08:31:27;5.63;;;2.97;;
49460;SDS011;35355;49.198;-0.368;2023-10-08T08:33:56;6.80;;;3.08;;
49460;SDS011;35355;49.198;-0.368;2023-10-08T08:36:35;7.43;;;3.88;;
49460;SDS011;35355;49.198;-0.368;2023-10-08T08:39:04;7.55;;;3.80;;
49460;SDS011;35355;49.198;-0.368;2023-10-08T08:41:36;7.90;;;2.95;;
49460;SDS011;35355;49.198;-0.368;2023-10-08T08:44:02;6.82;;;3.15;;
49460;SDS011;35355;49.198;-0.368;2023-10-08T08:46:37;6.88;;;3.33;;
49460;SDS011;35355;49.198;-0.368;2023-10-08T08:49:04;6.57;;;3.42;;
49460;SDS011;35355;49.198;-0.368;2023-10-08T08:51:34;10.70;;;4.43;;
49460;SDS011;35355;49.198;-0.368;2023-10-08T08:54:00;10.73;;;4.57;;
49460;SDS011;35355;49.198;-0.368;2023-10-08T08:56:31;7.45;;;3.80;;
49460;SDS011;35355;49.198;-0.368;2023-10-08T08:58:59;5.60;;;3.50;;
49460;SDS011;35355;49.198;-0.368;2023-10-08T09:01:26;8.25;;;3.42;;
49460;SDS011;35355;49.198;-0.368;2023-10-08T09:04:01;11.18;;;3.90;;
49460;SDS011;35355;49.198;-0.368;2023-10-08T09:06:33;8.98;;;3.42;;
49460;SDS011;35355;49.198;-0.368;2023-10-08T09:09:06;8.07;;;3.35;;
49460;SDS011;35355;49.198;-0.368;2023-10-08T09:11:58;5.80;;;3.33;;
49460;SDS011;35355;49.198;-0.368;2023-10-08T09:14:24;6.10;;;3.30;;
49460;SDS011;35355;49.198;-0.368;2023-10-08T09:16:52;8.63;;;4.13;;
49460;SDS011;35355;49.198;-0.368;2023-10-08T09:19:22;11.30;;;3.92;;
49460;SDS011;35355;49.198;-0.368;2023-10-08T09:22:06;10.15;;;3.53;;
49460;SDS011;35355;49.198;-0.368;2023-10-08T09:24:38;7.38;;;3.63;;
49460;SDS011;35355;49.198;-0.368;2023-10-08T09:27:05;8.25;;;3.45;;
49460;SDS011;35355;49.198;-0.368;2023-10-08T09:29:31;9.52;;;3.97;;
49460;SDS011;35355;49.198;-0.368;2023-10-08T09:32:04;6.28;;;3.10;;
49460;SDS011;35355;49.198;-0.368;2023-10-08T09:34:33;8.73;;;3.60;;
49460;SDS011;35355;49.198;-0.368;2023-10-08T09:37:00;5.13;;;3.03;;
49460;SDS011;35355;49.198;-0.368;2023-10-08T09:39:27;5.18;;;2.55;;
49460;SDS011;35355;49.198;-0.368;2023-10-08T09:41:57;9.43;;;2.78;;
49460;SDS011;35355;49.198;-0.368;2023-10-08T09:44:23;9.27;;;3.45;;
49460;SDS011;35355;49.198;-0.368;2023-10-08T09:46:53;7.85;;;3.17;;
49460;SDS011;35355;49.198;-0.368;2023-10-08T09:52:33;7.18;;;2.95;;
49460;SDS011;35355;49.198;-0.368;2023-10-08T09:55:08;11.13;;;3.47;;
49460;SDS011;35355;49.198;-0.368;2023-10-08T09:57:37;19.10;;;4.38;;
49460;SDS011;35355;49.198;-0.368;2023-10-08T10:00:09;8.93;;;3.28;;
49460;SDS011;35355;49.198;-0.368;2023-10-08T10:02:42;8.02;;;4.00;;
49460;SDS011;35355;49.198;-0.368;2023-10-08T10:05:12;9.15;;;3.60;;
49460;SDS011;35355;49.198;-0.368;2023-10-08T10:07:40;7.55;;;3.47;;
49460;SDS011;35355;49.198;-0.368;2023-10-08T10:10:27;10.77;;;3.45;;
49460;SDS011;35355;49.198;-0.368;2023-10-08T10:12:58;9.90;;;3.63;;
49460;SDS011;35355;49.198;-0.368;2023-10-08T10:15:28;14.13;;;4.75;;
49460;SDS011;35355;49.198;-0.368;2023-10-08T10:18:09;12.93;;;3.95;;
49460;SDS011;35355;49.198;-0.368;2023-10-08T10:20:38;5.97;;;2.83;;
49460;SDS011;35355;49.198;-0.368;2023-10-08T10:31:41;10.15;;;3.60;;
49460;SDS011;35355;49.198;-0.368;2023-10-08T10:34:10;6.13;;;2.78;;
49460;SDS011;35355;49.198;-0.368;2023-10-08T10:36:40;9.30;;;3.30;;
49460;SDS011;35355;49.198;-0.368;2023-10-08T10:39:07;8.25;;;3.38;;
49460;SDS011;35355;49.198;-0.368;2023-10-08T10:41:44;7.18;;;3.05;;
49460;SDS011;35355;49.198;-0.368;2023-10-08T10:44:12;5.57;;;2.80;;
49460;SDS011;35355;49.198;-0.368;2023-10-08T10:46:39;8.65;;;3.05;;
49460;SDS011;35355;49.198;-0.368;2023-10-08T10:49:20;7.15;;;2.78;;
49460;SDS011;35355;49.198;-0.368;2023-10-08T10:51:47;10.10;;;3.30;;
49460;SDS011;35355;49.198;-0.368;2023-10-08T10:54:17;9.13;;;3.28;;
49460;SDS011;35355;49.198;-0.368;2023-10-08T10:56:48;8.20;;;2.60;;
49460;SDS011;35355;49.198;-0.368;2023-10-08T10:59:28;7.85;;;3.13;;
49460;SDS011;35355;49.198;-0.368;2023-10-08T11:02:02;7.10;;;2.85;;
49460;SDS011;35355;49.198;-0.368;2023-10-08T11:04:55;6.50;;;3.13;;
49460;SDS011;35355;49.198;-0.368;2023-10-08T11:07:32;8.20;;;3.35;;
49460;SDS011;35355;49.198;-0.368;2023-10-08T11:09:59;6.45;;;2.75;;
49460;SDS011;35355;49.198;-0.368;2023-10-08T11:12:25;6.00;;;3.08;;
49460;SDS011;35355;49.198;-0.368;2023-10-08T11:15:08;4.57;;;2.42;;
49460;SDS011;35355;49.198;-0.368;2023-10-08T11:17:41;11.15;;;3.20;;
49460;SDS011;35355;49.198;-0.368;2023-10-08T11:20:29;8.23;;;2.42;;
49460;SDS011;35355;49.198;-0.368;2023-10-08T11:22:54;9.63;;;3.88;;
49460;SDS011;35355;49.198;-0.368;2023-10-08T11:25:23;6.43;;;2.28;;
49460;SDS011;35355;49.198;-0.368;2023-10-08T11:27:56;9.18;;;2.80;;
49460;SDS011;35355;49.198;-0.368;2023-10-08T11:30:28;7.80;;;2.60;;
49460;SDS011;35355;49.198;-0.368;2023-10-08T11:32:57;6.10;;;2.67;;
49460;SDS011;35355;49.198;-0.368;2023-10-08T11:35:24;11.10;;;3.03;;
49460;SDS011;35355;49.198;-0.368;2023-10-08T11:37:57;8.27;;;3.60;;
49460;SDS011;35355;49.198;-0.368;2023-10-08T11:40:26;6.80;;;2.60;;
49460;SDS011;35355;49.198;-0.368;2023-10-08T11:43:14;9.88;;;2.92;;
49460;SDS011;35355;49.198;-0.368;2023-10-08T11:45:41;12.43;;;2.75;;
49460;SDS011;35355;49.198;-0.368;2023-10-08T11:48:17;12.68;;;3.40;;
49460;SDS011;35355;49.198;-0.368;2023-10-08T11:50:51;7.68;;;2.78;;
49460;SDS011;35355;49.198;-0.368;2023-10-08T11:53:17;8.38;;;3.42;;
49460;SDS011;35355;49.198;-0.368;2023-10-08T11:55:46;7.10;;;2.38;;
49460;SDS011;35355;49.198;-0.368;2023-10-08T11:58:13;8.38;;;2.28;;
49460;SDS011;35355;49.198;-0.368;2023-10-08T12:00:45;12.50;;;3.17;;
49460;SDS011;35355;49.198;-0.368;2023-10-08T12:03:17;12.95;;;4.40;;
49460;SDS011;35355;49.198;-0.368;2023-10-08T12:05:45;19.60;;;4.03;;
49460;SDS011;35355;49.198;-0.368;2023-10-08T12:08:14;6.57;;;2.83;;
49460;SDS011;35355;49.198;-0.368;2023-10-08T12:10:42;7.00;;;3.13;;
49460;SDS011;35355;49.198;-0.368;2023-10-08T12:13:11;12.30;;;3.60;;
49460;SDS011;35355;49.198;-0.368;2023-10-08T12:15:37;9.93;;;3.70;;
49460;SDS011;35355;49.198;-0.368;2023-10-08T12:18:06;8.23;;;2.63;;
49460;SDS011;35355;49.198;-0.368;2023-10-08T12:20:50;6.28;;;2.85;;
49460;SDS011;35355;49.198;-0.368;2023-10-08T12:23:19;8.43;;;2.67;;
49460;SDS011;35355;49.198;-0.368;2023-10-08T12:25:53;9.25;;;3.58;;
49460;SDS011;35355;49.198;-0.368;2023-10-08T12:28:22;43.28;;;7.38;;
49460;SDS011;35355;49.198;-0.368;2023-10-08T12:30:49;8.77;;;2.95;;
49460;SDS011;35355;49.198;-0.368;2023-10-08T12:33:19;6.60;;;2.65;;
49460;SDS011;35355;49.198;-0.368;2023-10-08T12:35:47;7.95;;;2.95;;
49460;SDS011;35355;49.198;-0.368;2023-10-08T12:38:13;6.05;;;2.58;;
49460;SDS011;35355;49.198;-0.368;2023-10-08T12:40:45;13.40;;;3.60;;
49460;SDS011;35355;49.198;-0.368;2023-10-08T12:43:18;6.70;;;2.28;;
49460;SDS011;35355;49.198;-0.368;2023-10-08T12:45:50;5.15;;;2.17;;
49460;SDS011;35355;49.198;-0.368;2023-10-08T12:48:27;13.55;;;3.47;;
49460;SDS011;35355;49.198;-0.368;2023-10-08T12:50:54;5.47;;;2.03;;
49460;SDS011;35355;49.198;-0.368;2023-10-08T12:53:24;7.40;;;2.92;;
49460;SDS011;35355;49.198;-0.368;2023-10-08T12:56:02;3.47;;;1.73;;
49460;SDS011;35355;49.198;-0.368;2023-10-08T12:58:40;5.22;;;2.53;;
49460;SDS011;35355;49.198;-0.368;2023-10-08T13:01:11;7.95;;;2.45;;
49460;SDS011;35355;49.198;-0.368;2023-10-08T13:03:40;7.25;;;2.45;;
49460;SDS011;35355;49.198;-0.368;2023-10-08T13:06:10;5.40;;;2.28;;
49460;SDS011;35355;49.198;-0.368;2023-10-08T13:08:40;5.70;;;2.08;;
49460;SDS011;35355;49.198;-0.368;2023-10-08T13:11:11;7.57;;;2.65;;
49460;SDS011;35355;49.198;-0.368;2023-10-08T13:13:37;7.68;;;2.17;;
49460;SDS011;35355;49.198;-0.368;2023-10-08T13:16:03;7.15;;;1.70;;
49460;SDS011;35355;49.198;-0.368;2023-10-08T13:18:32;5.30;;;2.33;;
49460;SDS011;35355;49.198;-0.368;2023-10-08T13:20:58;3.78;;;1.92;;
49460;SDS011;35355;49.198;-0.368;2023-10-08T13:23:24;3.95;;;1.67;;
49460;SDS011;35355;49.198;-0.368;2023-10-08T13:25:50;4.63;;;2.28;;
49460;SDS011;35355;49.198;-0.368;2023-10-08T13:28:23;4.13;;;1.73;;
49460;SDS011;35355;49.198;-0.368;2023-10-08T13:30:52;12.38;;;3.53;;
49460;SDS011;35355;49.198;-0.368;2023-10-08T13:33:22;9.55;;;2.30;;
49460;SDS011;35355;49.198;-0.368;2023-10-08T13:35:48;4.07;;;1.92;;
49460;SDS011;35355;49.198;-0.368;2023-10-08T13:38:17;7.57;;;2.28;;
49460;SDS011;35355;49.198;-0.368;2023-10-08T13:40:45;4.55;;;1.77;;
49460;SDS011;35355;49.198;-0.368;2023-10-08T13:43:29;5.40;;;2.15;;
49460;SDS011;35355;49.198;-0.368;2023-10-08T13:46:05;4.93;;;2.10;;
49460;SDS011;35355;49.198;-0.368;2023-10-08T13:48:34;4.38;;;1.90;;
49460;SDS011;35355;49.198;-0.368;2023-10-08T13:51:03;4.43;;;1.98;;
49460;SDS011;35355;49.198;-0.368;2023-10-08T13:53:30;6.95;;;2.25;;
49460;SDS011;35355;49.198;-0.368;2023-10-08T13:56:01;7.13;;;2.63;;
49460;SDS011;35355;49.198;-0.368;2023-10-08T13:58:29;6.05;;;1.40;;
49460;SDS011;35355;49.198;-0.368;2023-10-08T14:00:56;6.93;;;2.55;;
49460;SDS011;35355;49.198;-0.368;2023-10-08T14:03:29;22.08;;;3.03;;
49460;SDS011;35355;49.198;-0.368;2023-10-08T14:05:59;5.78;;;1.85;;
49460;SDS011;35355;49.198;-0.368;2023-10-08T14:08:29;4.53;;;1.85;;
49460;SDS011;35355;49.198;-0.368;2023-10-08T14:10:56;5.55;;;1.88;;
49460;SDS011;35355;49.198;-0.368;2023-10-08T14:13:29;4.80;;;1.98;;
49460;SDS011;35355;49.198;-0.368;2023-10-08T14:15:56;6.72;;;1.75;;
49460;SDS011;35355;49.198;-0.368;2023-10-08T14:18:23;6.55;;;2.20;;
49460;SDS011;35355;49.198;-0.368;2023-10-08T14:20:54;3.70;;;1.60;;
49460;SDS011;35355;49.198;-0.368;2023-10-08T14:23:20;5.10;;;2.50;;
49460;SDS011;35355;49.198;-0.368;2023-10-08T14:25:50;4.18;;;1.50;;
49460;SDS011;35355;49.198;-0.368;2023-10-08T14:28:20;4.18;;;2.10;;
49460;SDS011;35355;49.198;-0.368;2023-10-08T14:31:05;5.47;;;1.80;;
49460;SDS011;35355;49.198;-0.368;2023-10-08T14:33:30;4.00;;;1.50;;
49460;SDS011;35355;49.198;-0.368;2023-10-08T14:36:12;5.15;;;2.20;;
49460;SDS011;35355;49.198;-0.368;2023-10-08T14:38:56;3.63;;;1.60;;
49460;SDS011;35355;49.198;-0.368;2023-10-08T14:41:40;9.98;;;2.20;;
49460;SDS011;35355;49.198;-0.368;2023-10-08T14:44:26;5.07;;;2.22;;
49460;SDS011;35355;49.198;-0.368;2023-10-08T14:46:52;3.53;;;1.70;;
49460;SDS011;35355;49.198;-0.368;2023-10-08T14:49:19;5.97;;;2.13;;
49460;SDS011;35355;49.198;-0.368;2023-10-08T14:51:47;5.63;;;2.10;;
49460;SDS011;35355;49.198;-0.368;2023-10-08T14:54:14;8.15;;;2.13;;
49460;SDS011;35355;49.198;-0.368;2023-10-08T14:56:45;5.43;;;2.17;;
49460;SDS011;35355;49.198;-0.368;2023-10-08T14:59:11;4.45;;;2.30;;
49460;SDS011;35355;49.198;-0.368;2023-10-08T15:01:37;3.20;;;1.55;;
49460;SDS011;35355;49.198;-0.368;2023-10-08T15:04:03;4.03;;;2.03;;
49460;SDS011;35355;49.198;-0.368;2023-10-08T15:06:30;5.55;;;2.55;;
49460;SDS011;35355;49.198;-0.368;2023-10-08T15:08:56;5.68;;;2.42;;
49460;SDS011;35355;49.198;-0.368;2023-10-08T15:11:22;4.13;;;2.17;;
49460;SDS011;35355;49.198;-0.368;2023-10-08T15:13:48;5.70;;;2.50;;
49460;SDS011;35355;49.198;-0.368;2023-10-08T15:16:18;7.57;;;2.85;;
49460;SDS011;35355;49.198;-0.368;2023-10-08T15:18:48;8.38;;;2.20;;
49460;SDS011;35355;49.198;-0.368;2023-10-08T15:21:14;5.80;;;2.47;;
49460;SDS011;35355;49.198;-0.368;2023-10-08T15:23:40;7.93;;;2.67;;
49460;SDS011;35355;49.198;-0.368;2023-10-08T15:26:06;8.27;;;2.03;;
49460;SDS011;35355;49.198;-0.368;2023-10-08T15:28:32;5.28;;;2.60;;
49460;SDS011;35355;49.198;-0.368;2023-10-08T15:30:58;6.30;;;2.25;;